sensor_id;sensor_type;location;lat;lon;timestamp;P1;durP1;ratioP1;P2;durP2;ratioP2
4186;SDS011;2107;52.306;10.484;2024-02-26T00:02:02;0.20;;;0.20;;
4186;SDS011;2107;52.306;10.484;2024-02-26T00:04:29;0.20;;;0.20;;
4186;SDS011;2107;52.306;10.484;2024-02-26T00:06:57;0.20;;;0.20;;
4186;SDS011;2107;52.306;10.484;2024-02-26T00:09:24;0.20;;;0.20;;
4186;SDS011;2107;52.306;10.484;2024-02-26T00:11:50;0.20;;;0.20;;
4186;SDS011;2107;52.306;10.484;2024-02-26T00:14:17;0.20;;;0.20;;
4186;SDS011;2107;52.306;10.484;2024-02-26T00:16:44;0.20;;;0.20;;
4186;SDS011;2107;52.306;10.484;2024-02-26T00:19:11;0.20;;;0.20;;
4186;SDS011;2107;52.306;10.484;2024-02-26T00:21:39;0.20;;;0.20;;
4186;SDS011;2107;52.306;10.484;2024-02-26T00:24:08;0.20;;;0.20;;
4186;SDS011;2107;52.306;10.484;2024-02-26T00:26:35;0.20;;;0.20;;
4186;SDS011;2107;52.306;10.484;2024-02-26T00:29:02;0.20;;;0.20;;
4186;SDS011;2107;52.306;10.484;2024-02-26T00:31:29;0.20;;;0.20;;
4186;SDS011;2107;52.306;10.484;2024-02-26T00:33:55;0.20;;;0.20;;
4186;SDS011;2107;52.306;10.484;2024-02-26T00:36:22;0.20;;;0.20;;
4186;SDS011;2107;52.306;10.484;2024-02-26T00:38:50;0.20;;;0.20;;
4186;SDS011;2107;52.306;10.484;2024-02-26T00:41:18;0.20;;;0.20;;
4186;SDS011;2107;52.306;10.484;2024-02-26T00:43:46;0.20;;;0.20;;
4186;SDS011;2107;52.306;10.484;2024-02-26T00:46:12;0.20;;;0.20;;
4186;SDS011;2107;52.306;10.484;2024-02-26T00:48:39;0.23;;;0.23;;
4186;SDS011;2107;52.306;10.484;2024-02-26T00:51:06;0.20;;;0.20;;
4186;SDS011;2107;52.306;10.484;2024-02-26T00:53:33;0.20;;;0.20;;
4186;SDS011;2107;52.306;10.484;2024-02-26T00:56:00;0.20;;;0.20;;
4186;SDS011;2107;52.306;10.484;2024-02-26T00:58:28;0.20;;;0.20;;
4186;SDS011;2107;52.306;10.484;2024-02-26T01:00:55;0.20;;;0.20;;
4186;SDS011;2107;52.306;10.484;2024-02-26T01:03:22;0.20;;;0.20;;
4186;SDS011;2107;52.306;10.484;2024-02-26T01:05:49;0.20;;;0.20;;
4186;SDS011;2107;52.306;10.484;2024-02-26T01:08:16;0.20;;;0.20;;
4186;SDS011;2107;52.306;10.484;2024-02-26T01:10:44;0.20;;;0.20;;
4186;SDS011;2107;52.306;10.484;2024-02-26T01:13:11;0.10;;;0.10;;
4186;SDS011;2107;52.306;10.484;2024-02-26T01:15:39;0.10;;;0.10;;
4186;SDS011;2107;52.306;10.484;2024-02-26T01:18:06;0.10;;;0.10;;
4186;SDS011;2107;52.306;10.484;2024-02-26T01:20:33;0.10;;;0.10;;
4186;SDS011;2107;52.306;10.484;2024-02-26T01:23:00;0.10;;;0.10;;
4186;SDS011;2107;52.306;10.484;2024-02-26T01:25:27;0.10;;;0.10;;
4186;SDS011;2107;52.306;10.484;2024-02-26T01:27:54;0.10;;;0.10;;
4186;SDS011;2107;52.306;10.484;2024-02-26T01:30:21;0.10;;;0.10;;
4186;SDS011;2107;52.306;10.484;2024-02-26T01:32:49;0.10;;;0.10;;
4186;SDS011;2107;52.306;10.484;2024-02-26T01:35:16;0.10;;;0.10;;
4186;SDS011;2107;52.306;10.484;2024-02-26T01:37:43;0.10;;;0.10;;
4186;SDS011;2107;52.306;10.484;2024-02-26T01:40:10;0.10;;;0.10;;
4186;SDS011;2107;52.306;10.484;2024-02-26T01:42:42;0.10;;;0.10;;
4186;SDS011;2107;52.306;10.484;2024-02-26T01:45:11;0.10;;;0.10;;
4186;SDS011;2107;52.306;10.484;2024-02-26T01:47:46;0.10;;;0.10;;
4186;SDS011;2107;52.306;10.484;2024-02-26T01:50:14;0.10;;;0.10;;
4186;SDS011;2107;52.306;10.484;2024-02-26T01:52:41;0.20;;;0.20;;
4186;SDS011;2107;52.306;10.484;2024-02-26T01:55:08;0.10;;;0.10;;
4186;SDS011;2107;52.306;10.484;2024-02-26T01:57:35;0.10;;;0.10;;
4186;SDS011;2107;52.306;10.484;2024-02-26T02:00:02;0.10;;;0.10;;
4186;SDS011;2107;52.306;10.484;2024-02-26T02:02:30;0.10;;;0.10;;
4186;SDS011;2107;52.306;10.484;2024-02-26T02:04:57;0.10;;;0.10;;
4186;SDS011;2107;52.306;10.484;2024-02-26T02:07:26;0.10;;;0.10;;
4186;SDS011;2107;52.306;10.484;2024-02-26T02:09:53;0.10;;;0.10;;
4186;SDS011;2107;52.306;10.484;2024-02-26T02:12:20;0.10;;;0.10;;
4186;SDS011;2107;52.306;10.484;2024-02-26T02:14:48;0.10;;;0.10;;
4186;SDS011;2107;52.306;10.484;2024-02-26T02:17:15;0.10;;;0.10;;
4186;SDS011;2107;52.306;10.484;2024-02-26T02:19:42;0.10;;;0.10;;
4186;SDS011;2107;52.306;10.484;2024-02-26T02:22:10;0.10;;;0.10;;
4186;SDS011;2107;52.306;10.484;2024-02-26T02:24:37;0.10;;;0.10;;
4186;SDS011;2107;52.306;10.484;2024-02-26T02:27:04;0.10;;;0.10;;
4186;SDS011;2107;52.306;10.484;2024-02-26T02:29:31;0.10;;;0.10;;
4186;SDS011;2107;52.306;10.484;2024-02-26T02:31:58;0.10;;;0.10;;
4186;SDS011;2107;52.306;10.484;2024-02-26T02:34:27;0.10;;;0.10;;
4186;SDS011;2107;52.306;10.484;2024-02-26T02:36:54;0.10;;;0.10;;
4186;SDS011;2107;52.306;10.484;2024-02-26T02:39:23;0.00;;;0.00;;
4186;SDS011;2107;52.306;10.484;2024-02-26T02:41:50;0.10;;;0.10;;
4186;SDS011;2107;52.306;10.484;2024-02-26T02:44:16;0.10;;;0.10;;
4186;SDS011;2107;52.306;10.484;2024-02-26T02:46:43;0.10;;;0.10;;
4186;SDS011;2107;52.306;10.484;2024-02-26T02:49:10;0.10;;;0.10;;
4186;SDS011;2107;52.306;10.484;2024-02-26T02:51:37;0.10;;;0.10;;
4186;SDS011;2107;52.306;10.484;2024-02-26T02:54:04;0.10;;;0.10;;
4186;SDS011;2107;52.306;10.484;2024-02-26T02:56:32;0.10;;;0.10;;
4186;SDS011;2107;52.306;10.484;2024-02-26T02:58:59;0.00;;;0.00;;
4186;SDS011;2107;52.306;10.484;2024-02-26T03:01:26;0.10;;;0.10;;
4186;SDS011;2107;52.306;10.484;2024-02-26T03:03:53;0.10;;;0.10;;
4186;SDS011;2107;52.306;10.484;2024-02-26T03:06:19;0.10;;;0.10;;
4186;SDS011;2107;52.306;10.484;2024-02-26T03:08:47;0.10;;;0.10;;
4186;SDS011;2107;52.306;10.484;2024-02-26T03:11:14;0.10;;;0.10;;
4186;SDS011;2107;52.306;10.484;2024-02-26T03:13:42;0.00;;;0.00;;
4186;SDS011;2107;52.306;10.484;2024-02-26T03:16:09;0.00;;;0.00;;
4186;SDS011;2107;52.306;10.484;2024-02-26T03:18:38;0.00;;;0.00;;
4186;SDS011;2107;52.306;10.484;2024-02-26T03:21:05;0.00;;;0.00;;
4186;SDS011;2107;52.306;10.484;2024-02-26T03:23:32;0.00;;;0.00;;
4186;SDS011;2107;52.306;10.484;2024-02-26T03:26:01;0.00;;;0.00;;
4186;SDS011;2107;52.306;10.484;2024-02-26T03:28:28;0.00;;;0.00;;
4186;SDS011;2107;52.306;10.484;2024-02-26T03:30:57;0.00;;;0.00;;
4186;SDS011;2107;52.306;10.484;2024-02-26T03:33:24;0.03;;;0.03;;
4186;SDS011;2107;52.306;10.484;2024-02-26T03:35:50;0.03;;;0.03;;
4186;SDS011;2107;52.306;10.484;2024-02-26T03:38:17;0.10;;;0.10;;
4186;SDS011;2107;52.306;10.484;2024-02-26T03:40:44;0.10;;;0.10;;
4186;SDS011;2107;52.306;10.484;2024-02-26T03:43:11;0.00;;;0.00;;
4186;SDS011;2107;52.306;10.484;2024-02-26T03:45:38;0.00;;;0.00;;
4186;SDS011;2107;52.306;10.484;2024-02-26T03:48:07;0.00;;;0.00;;
4186;SDS011;2107;52.306;10.484;2024-02-26T03:50:34;0.00;;;0.00;;
4186;SDS011;2107;52.306;10.484;2024-02-26T03:53:01;0.00;;;0.00;;
4186;SDS011;2107;52.306;10.484;2024-02-26T03:55:28;0.00;;;0.00;;
4186;SDS011;2107;52.306;10.484;2024-02-26T03:57:54;0.00;;;0.00;;
4186;SDS011;2107;52.306;10.484;2024-02-26T04:00:21;0.00;;;0.00;;
4186;SDS011;2107;52.306;10.484;2024-02-26T04:02:48;0.00;;;0.00;;
4186;SDS011;2107;52.306;10.484;2024-02-26T04:05:17;0.00;;;0.00;;
4186;SDS011;2107;52.306;10.484;2024-02-26T04:07:44;0.00;;;0.00;;
4186;SDS011;2107;52.306;10.484;2024-02-26T04:10:11;0.00;;;0.00;;
4186;SDS011;2107;52.306;10.484;2024-02-26T04:12:38;0.00;;;0.00;;
4186;SDS011;2107;52.306;10.484;2024-02-26T04:15:06;0.00;;;0.00;;
4186;SDS011;2107;52.306;10.484;2024-02-26T04:17:34;0.00;;;0.00;;
4186;SDS011;2107;52.306;10.484;2024-02-26T04:20:01;0.00;;;0.00;;
4186;SDS011;2107;52.306;10.484;2024-02-26T04:22:29;0.00;;;0.00;;
4186;SDS011;2107;52.306;10.484;2024-02-26T04:24:57;0.00;;;0.00;;
4186;SDS011;2107;52.306;10.484;2024-02-26T04:27:24;0.00;;;0.00;;
4186;SDS011;2107;52.306;10.484;2024-02-26T04:29:50;0.00;;;0.00;;
4186;SDS011;2107;52.306;10.484;2024-02-26T04:32:17;0.00;;;0.00;;
4186;SDS011;2107;52.306;10.484;2024-02-26T04:34:44;0.00;;;0.00;;
4186;SDS011;2107;52.306;10.484;2024-02-26T04:37:11;0.00;;;0.00;;
4186;SDS011;2107;52.306;10.484;2024-02-26T04:39:39;0.00;;;0.00;;
4186;SDS011;2107;52.306;10.484;2024-02-26T04:42:06;0.00;;;0.00;;
4186;SDS011;2107;52.306;10.484;2024-02-26T04:44:33;0.00;;;0.00;;
4186;SDS011;2107;52.306;10.484;2024-02-26T04:47:00;0.00;;;0.00;;
4186;SDS011;2107;52.306;10.484;2024-02-26T04:49:27;0.10;;;0.10;;
4186;SDS011;2107;52.306;10.484;2024-02-26T04:51:54;0.10;;;0.10;;
4186;SDS011;2107;52.306;10.484;2024-02-26T04:54:21;0.00;;;0.00;;
4186;SDS011;2107;52.306;10.484;2024-02-26T04:56:49;0.10;;;0.10;;
4186;SDS011;2107;52.306;10.484;2024-02-26T04:59:16;0.10;;;0.10;;
4186;SDS011;2107;52.306;10.484;2024-02-26T05:01:43;0.10;;;0.10;;
4186;SDS011;2107;52.306;10.484;2024-02-26T05:04:10;0.10;;;0.10;;
4186;SDS011;2107;52.306;10.484;2024-02-26T05:06:37;0.10;;;0.10;;
4186;SDS011;2107;52.306;10.484;2024-02-26T05:09:04;0.10;;;0.10;;
4186;SDS011;2107;52.306;10.484;2024-02-26T05:11:31;0.03;;;0.03;;
4186;SDS011;2107;52.306;10.484;2024-02-26T05:13:59;0.10;;;0.10;;
4186;SDS011;2107;52.306;10.484;2024-02-26T05:16:26;0.10;;;0.10;;
4186;SDS011;2107;52.306;10.484;2024-02-26T05:18:55;0.10;;;0.10;;
4186;SDS011;2107;52.306;10.484;2024-02-26T05:21:22;0.10;;;0.10;;
4186;SDS011;2107;52.306;10.484;2024-02-26T05:23:49;0.20;;;0.20;;
4186;SDS011;2107;52.306;10.484;2024-02-26T05:26:19;0.10;;;0.10;;
4186;SDS011;2107;52.306;10.484;2024-02-26T05:28:47;0.10;;;0.10;;
4186;SDS011;2107;52.306;10.484;2024-02-26T05:31:16;0.10;;;0.10;;
4186;SDS011;2107;52.306;10.484;2024-02-26T05:33:46;0.20;;;0.20;;
4186;SDS011;2107;52.306;10.484;2024-02-26T05:36:17;0.20;;;0.20;;
4186;SDS011;2107;52.306;10.484;2024-02-26T05:38:46;0.20;;;0.20;;
4186;SDS011;2107;52.306;10.484;2024-02-26T05:41:13;0.20;;;0.20;;
4186;SDS011;2107;52.306;10.484;2024-02-26T05:43:41;0.20;;;0.20;;
4186;SDS011;2107;52.306;10.484;2024-02-26T05:46:08;0.30;;;0.30;;
4186;SDS011;2107;52.306;10.484;2024-02-26T05:48:36;0.30;;;0.30;;
4186;SDS011;2107;52.306;10.484;2024-02-26T05:51:04;0.30;;;0.30;;
4186;SDS011;2107;52.306;10.484;2024-02-26T05:53:31;0.30;;;0.30;;
4186;SDS011;2107;52.306;10.484;2024-02-26T05:55:59;0.30;;;0.30;;
4186;SDS011;2107;52.306;10.484;2024-02-26T05:58:26;0.30;;;0.30;;
4186;SDS011;2107;52.306;10.484;2024-02-26T06:00:52;0.30;;;0.30;;
4186;SDS011;2107;52.306;10.484;2024-02-26T06:03:19;0.30;;;0.30;;
4186;SDS011;2107;52.306;10.484;2024-02-26T06:05:48;0.40;;;0.40;;
4186;SDS011;2107;52.306;10.484;2024-02-26T06:08:14;0.40;;;0.40;;
4186;SDS011;2107;52.306;10.484;2024-02-26T06:10:42;0.50;;;0.50;;
4186;SDS011;2107;52.306;10.484;2024-02-26T06:13:08;0.60;;;0.60;;
4186;SDS011;2107;52.306;10.484;2024-02-26T06:15:36;0.60;;;0.60;;
4186;SDS011;2107;52.306;10.484;2024-02-26T06:18:04;0.50;;;0.50;;
4186;SDS011;2107;52.306;10.484;2024-02-26T06:20:31;0.60;;;0.60;;
4186;SDS011;2107;52.306;10.484;2024-02-26T06:23:01;0.70;;;0.70;;
4186;SDS011;2107;52.306;10.484;2024-02-26T06:25:28;0.60;;;0.60;;
4186;SDS011;2107;52.306;10.484;2024-02-26T06:27:55;0.73;;;0.73;;
4186;SDS011;2107;52.306;10.484;2024-02-26T06:30:22;0.60;;;0.60;;
4186;SDS011;2107;52.306;10.484;2024-02-26T06:32:49;0.70;;;0.70;;
4186;SDS011;2107;52.306;10.484;2024-02-26T06:35:16;0.70;;;0.70;;
4186;SDS011;2107;52.306;10.484;2024-02-26T06:37:42;0.60;;;0.60;;
4186;SDS011;2107;52.306;10.484;2024-02-26T06:40:11;0.70;;;0.70;;
4186;SDS011;2107;52.306;10.484;2024-02-26T06:42:38;0.53;;;0.53;;
4186;SDS011;2107;52.306;10.484;2024-02-26T06:45:05;0.50;;;0.50;;
4186;SDS011;2107;52.306;10.484;2024-02-26T06:47:32;1.00;;;1.00;;
4186;SDS011;2107;52.306;10.484;2024-02-26T06:49:59;0.73;;;0.73;;
4186;SDS011;2107;52.306;10.484;2024-02-26T06:52:26;0.70;;;0.70;;
4186;SDS011;2107;52.306;10.484;2024-02-26T06:54:53;0.80;;;0.80;;
4186;SDS011;2107;52.306;10.484;2024-02-26T06:57:21;0.80;;;0.80;;
4186;SDS011;2107;52.306;10.484;2024-02-26T06:59:49;0.80;;;0.80;;
4186;SDS011;2107;52.306;10.484;2024-02-26T07:02:15;0.90;;;0.90;;
4186;SDS011;2107;52.306;10.484;2024-02-26T07:04:42;0.90;;;0.90;;
4186;SDS011;2107;52.306;10.484;2024-02-26T07:07:09;0.93;;;0.93;;
4186;SDS011;2107;52.306;10.484;2024-02-26T07:09:36;0.70;;;0.70;;
4186;SDS011;2107;52.306;10.484;2024-02-26T07:12:03;0.80;;;0.80;;
4186;SDS011;2107;52.306;10.484;2024-02-26T07:14:31;0.80;;;0.80;;
4186;SDS011;2107;52.306;10.484;2024-02-26T07:16:59;0.70;;;0.70;;
4186;SDS011;2107;52.306;10.484;2024-02-26T07:19:25;1.00;;;1.00;;
4186;SDS011;2107;52.306;10.484;2024-02-26T07:21:52;1.10;;;1.10;;
4186;SDS011;2107;52.306;10.484;2024-02-26T07:24:20;1.20;;;1.20;;
4186;SDS011;2107;52.306;10.484;2024-02-26T07:26:47;1.10;;;1.10;;
4186;SDS011;2107;52.306;10.484;2024-02-26T07:29:13;1.10;;;1.10;;
4186;SDS011;2107;52.306;10.484;2024-02-26T07:31:42;1.10;;;1.10;;
4186;SDS011;2107;52.306;10.484;2024-02-26T07:34:08;1.10;;;1.10;;
4186;SDS011;2107;52.306;10.484;2024-02-26T07:36:35;1.00;;;1.00;;
4186;SDS011;2107;52.306;10.484;2024-02-26T07:39:02;1.00;;;1.00;;
4186;SDS011;2107;52.306;10.484;2024-02-26T07:41:30;1.20;;;1.20;;
4186;SDS011;2107;52.306;10.484;2024-02-26T07:43:57;1.10;;;1.10;;
4186;SDS011;2107;52.306;10.484;2024-02-26T07:46:24;1.20;;;1.20;;
4186;SDS011;2107;52.306;10.484;2024-02-26T07:48:52;1.10;;;1.10;;
4186;SDS011;2107;52.306;10.484;2024-02-26T07:51:19;1.00;;;1.00;;
4186;SDS011;2107;52.306;10.484;2024-02-26T07:53:47;1.00;;;1.00;;
4186;SDS011;2107;52.306;10.484;2024-02-26T07:56:14;1.20;;;1.20;;
4186;SDS011;2107;52.306;10.484;2024-02-26T07:58:41;0.90;;;0.90;;
4186;SDS011;2107;52.306;10.484;2024-02-26T08:01:08;1.40;;;1.40;;
4186;SDS011;2107;52.306;10.484;2024-02-26T08:03:36;1.10;;;1.10;;
4186;SDS011;2107;52.306;10.484;2024-02-26T08:06:05;1.00;;;1.00;;
4186;SDS011;2107;52.306;10.484;2024-02-26T08:08:32;1.00;;;1.00;;
4186;SDS011;2107;52.306;10.484;2024-02-26T08:10:59;1.00;;;1.00;;
4186;SDS011;2107;52.306;10.484;2024-02-26T08:13:26;1.20;;;1.20;;
4186;SDS011;2107;52.306;10.484;2024-02-26T08:15:53;1.00;;;1.00;;
4186;SDS011;2107;52.306;10.484;2024-02-26T08:18:20;1.00;;;1.00;;
4186;SDS011;2107;52.306;10.484;2024-02-26T08:20:47;1.00;;;1.00;;
4186;SDS011;2107;52.306;10.484;2024-02-26T08:23:15;0.80;;;0.80;;
4186;SDS011;2107;52.306;10.484;2024-02-26T08:25:43;0.90;;;0.90;;
4186;SDS011;2107;52.306;10.484;2024-02-26T08:28:10;0.93;;;0.93;;
4186;SDS011;2107;52.306;10.484;2024-02-26T08:30:38;0.70;;;0.70;;
4186;SDS011;2107;52.306;10.484;2024-02-26T08:33:05;0.80;;;0.80;;
4186;SDS011;2107;52.306;10.484;2024-02-26T08:35:32;0.80;;;0.80;;
4186;SDS011;2107;52.306;10.484;2024-02-26T08:37:59;0.70;;;0.70;;
4186;SDS011;2107;52.306;10.484;2024-02-26T08:40:27;0.80;;;0.80;;
4186;SDS011;2107;52.306;10.484;2024-02-26T08:42:54;0.80;;;0.80;;
4186;SDS011;2107;52.306;10.484;2024-02-26T08:45:21;1.00;;;1.00;;
4186;SDS011;2107;52.306;10.484;2024-02-26T08:47:48;0.90;;;0.90;;
4186;SDS011;2107;52.306;10.484;2024-02-26T08:50:15;1.00;;;1.00;;
4186;SDS011;2107;52.306;10.484;2024-02-26T08:52:42;1.00;;;1.00;;
4186;SDS011;2107;52.306;10.484;2024-02-26T08:55:09;0.80;;;0.80;;
4186;SDS011;2107;52.306;10.484;2024-02-26T08:57:37;1.10;;;1.10;;
4186;SDS011;2107;52.306;10.484;2024-02-26T09:00:04;0.90;;;0.90;;
4186;SDS011;2107;52.306;10.484;2024-02-26T09:02:32;0.80;;;0.80;;
4186;SDS011;2107;52.306;10.484;2024-02-26T09:04:59;0.80;;;0.80;;
4186;SDS011;2107;52.306;10.484;2024-02-26T09:07:26;0.90;;;0.90;;
4186;SDS011;2107;52.306;10.484;2024-02-26T09:09:53;0.70;;;0.70;;
4186;SDS011;2107;52.306;10.484;2024-02-26T09:12:21;0.80;;;0.80;;
4186;SDS011;2107;52.306;10.484;2024-02-26T09:14:49;0.80;;;0.80;;
4186;SDS011;2107;52.306;10.484;2024-02-26T09:17:17;0.67;;;0.67;;
4186;SDS011;2107;52.306;10.484;2024-02-26T09:19:44;1.10;;;1.10;;
4186;SDS011;2107;52.306;10.484;2024-02-26T09:22:10;1.10;;;1.10;;
4186;SDS011;2107;52.306;10.484;2024-02-26T09:24:37;0.90;;;0.90;;
4186;SDS011;2107;52.306;10.484;2024-02-26T09:27:04;0.93;;;0.93;;
4186;SDS011;2107;52.306;10.484;2024-02-26T09:29:31;0.90;;;0.90;;
4186;SDS011;2107;52.306;10.484;2024-02-26T09:32:00;0.97;;;0.97;;
4186;SDS011;2107;52.306;10.484;2024-02-26T09:34:27;1.00;;;1.00;;
4186;SDS011;2107;52.306;10.484;2024-02-26T09:36:54;0.60;;;0.60;;
4186;SDS011;2107;52.306;10.484;2024-02-26T09:39:21;0.80;;;0.80;;
4186;SDS011;2107;52.306;10.484;2024-02-26T09:41:48;0.90;;;0.90;;
4186;SDS011;2107;52.306;10.484;2024-02-26T09:44:18;0.90;;;0.90;;
4186;SDS011;2107;52.306;10.484;2024-02-26T09:46:46;0.70;;;0.70;;
4186;SDS011;2107;52.306;10.484;2024-02-26T09:49:16;0.90;;;0.90;;
4186;SDS011;2107;52.306;10.484;2024-02-26T09:51:44;0.70;;;0.70;;
4186;SDS011;2107;52.306;10.484;2024-02-26T09:54:13;0.80;;;0.80;;
4186;SDS011;2107;52.306;10.484;2024-02-26T09:56:42;0.90;;;0.90;;
4186;SDS011;2107;52.306;10.484;2024-02-26T09:59:13;0.90;;;0.90;;
4186;SDS011;2107;52.306;10.484;2024-02-26T10:01:43;0.80;;;0.80;;
4186;SDS011;2107;52.306;10.484;2024-02-26T10:04:12;0.80;;;0.80;;
4186;SDS011;2107;52.306;10.484;2024-02-26T10:06:41;0.83;;;0.83;;
4186;SDS011;2107;52.306;10.484;2024-02-26T10:09:09;0.70;;;0.70;;
4186;SDS011;2107;52.306;10.484;2024-02-26T10:11:37;0.70;;;0.70;;
4186;SDS011;2107;52.306;10.484;2024-02-26T10:14:04;0.87;;;0.87;;
4186;SDS011;2107;52.306;10.484;2024-02-26T10:16:31;0.70;;;0.70;;
4186;SDS011;2107;52.306;10.484;2024-02-26T10:18:59;0.80;;;0.80;;
4186;SDS011;2107;52.306;10.484;2024-02-26T10:21:26;0.83;;;0.83;;
4186;SDS011;2107;52.306;10.484;2024-02-26T10:23:54;0.87;;;0.87;;
4186;SDS011;2107;52.306;10.484;2024-02-26T10:26:21;0.70;;;0.70;;
4186;SDS011;2107;52.306;10.484;2024-02-26T10:28:48;0.80;;;0.80;;
4186;SDS011;2107;52.306;10.484;2024-02-26T10:31:15;0.80;;;0.80;;
4186;SDS011;2107;52.306;10.484;2024-02-26T10:33:42;0.80;;;0.80;;
4186;SDS011;2107;52.306;10.484;2024-02-26T10:36:10;0.60;;;0.60;;
4186;SDS011;2107;52.306;10.484;2024-02-26T10:38:37;1.00;;;1.00;;
4186;SDS011;2107;52.306;10.484;2024-02-26T10:41:06;0.80;;;0.80;;
4186;SDS011;2107;52.306;10.484;2024-02-26T10:43:33;1.00;;;1.00;;
4186;SDS011;2107;52.306;10.484;2024-02-26T10:46:00;1.10;;;1.10;;
4186;SDS011;2107;52.306;10.484;2024-02-26T10:48:27;1.10;;;1.10;;
4186;SDS011;2107;52.306;10.484;2024-02-26T10:50:54;1.00;;;1.00;;
4186;SDS011;2107;52.306;10.484;2024-02-26T10:53:22;1.00;;;1.00;;
4186;SDS011;2107;52.306;10.484;2024-02-26T10:55:52;0.90;;;0.90;;
4186;SDS011;2107;52.306;10.484;2024-02-26T10:58:22;0.90;;;0.90;;
4186;SDS011;2107;52.306;10.484;2024-02-26T11:00:51;0.80;;;0.80;;
4186;SDS011;2107;52.306;10.484;2024-02-26T11:03:19;1.00;;;1.00;;
4186;SDS011;2107;52.306;10.484;2024-02-26T11:05:47;1.00;;;1.00;;
4186;SDS011;2107;52.306;10.484;2024-02-26T11:08:15;0.90;;;0.90;;
4186;SDS011;2107;52.306;10.484;2024-02-26T11:10:44;0.80;;;0.80;;
4186;SDS011;2107;52.306;10.484;2024-02-26T11:13:14;0.80;;;0.80;;
4186;SDS011;2107;52.306;10.484;2024-02-26T11:15:44;0.80;;;0.80;;
4186;SDS011;2107;52.306;10.484;2024-02-26T11:18:13;0.90;;;0.90;;
4186;SDS011;2107;52.306;10.484;2024-02-26T11:20:41;0.90;;;0.90;;
4186;SDS011;2107;52.306;10.484;2024-02-26T11:23:09;0.70;;;0.70;;
4186;SDS011;2107;52.306;10.484;2024-02-26T11:25:36;0.70;;;0.70;;
4186;SDS011;2107;52.306;10.484;2024-02-26T11:28:05;1.00;;;1.00;;
4186;SDS011;2107;52.306;10.484;2024-02-26T11:30:38;0.90;;;0.90;;
4186;SDS011;2107;52.306;10.484;2024-02-26T11:33:10;0.93;;;0.93;;
4186;SDS011;2107;52.306;10.484;2024-02-26T11:35:38;0.90;;;0.90;;
4186;SDS011;2107;52.306;10.484;2024-02-26T11:38:05;0.97;;;0.97;;
4186;SDS011;2107;52.306;10.484;2024-02-26T11:40:32;0.80;;;0.80;;
4186;SDS011;2107;52.306;10.484;2024-02-26T11:43:04;0.80;;;0.80;;
4186;SDS011;2107;52.306;10.484;2024-02-26T11:48:25;0.70;;;0.70;;
4186;SDS011;2107;52.306;10.484;2024-02-26T11:50:55;0.80;;;0.80;;
4186;SDS011;2107;52.306;10.484;2024-02-26T11:53:25;0.90;;;0.90;;
4186;SDS011;2107;52.306;10.484;2024-02-26T11:58:39;1.10;;;1.10;;
4186;SDS011;2107;52.306;10.484;2024-02-26T12:01:06;0.90;;;0.90;;
4186;SDS011;2107;52.306;10.484;2024-02-26T12:04:04;1.00;;;1.00;;
4186;SDS011;2107;52.306;10.484;2024-02-26T12:06:39;1.00;;;1.00;;
4186;SDS011;2107;52.306;10.484;2024-02-26T12:09:07;0.97;;;0.97;;
4186;SDS011;2107;52.306;10.484;2024-02-26T12:11:36;1.00;;;1.00;;
4186;SDS011;2107;52.306;10.484;2024-02-26T12:14:05;0.80;;;0.80;;
4186;SDS011;2107;52.306;10.484;2024-02-26T12:16:37;1.00;;;1.00;;
4186;SDS011;2107;52.306;10.484;2024-02-26T12:19:06;1.00;;;1.00;;
4186;SDS011;2107;52.306;10.484;2024-02-26T12:21:34;1.00;;;1.00;;
4186;SDS011;2107;52.306;10.484;2024-02-26T12:24:12;1.30;;;1.30;;
4186;SDS011;2107;52.306;10.484;2024-02-26T12:26:41;1.20;;;1.20;;
4186;SDS011;2107;52.306;10.484;2024-02-26T12:29:08;1.30;;;1.30;;
4186;SDS011;2107;52.306;10.484;2024-02-26T12:31:36;0.90;;;0.90;;
4186;SDS011;2107;52.306;10.484;2024-02-26T12:34:04;1.10;;;1.10;;
4186;SDS011;2107;52.306;10.484;2024-02-26T12:36:34;1.00;;;1.00;;
4186;SDS011;2107;52.306;10.484;2024-02-26T12:39:03;1.00;;;1.00;;
4186;SDS011;2107;52.306;10.484;2024-02-26T12:41:31;1.10;;;1.10;;
4186;SDS011;2107;52.306;10.484;2024-02-26T12:43:58;1.00;;;1.00;;
4186;SDS011;2107;52.306;10.484;2024-02-26T12:46:25;1.00;;;1.00;;
4186;SDS011;2107;52.306;10.484;2024-02-26T12:48:54;0.90;;;0.90;;
4186;SDS011;2107;52.306;10.484;2024-02-26T12:51:25;0.83;;;0.83;;
4186;SDS011;2107;52.306;10.484;2024-02-26T12:53:53;0.73;;;0.73;;
4186;SDS011;2107;52.306;10.484;2024-02-26T12:56:22;0.90;;;0.90;;
4186;SDS011;2107;52.306;10.484;2024-02-26T12:58:52;1.00;;;1.00;;
4186;SDS011;2107;52.306;10.484;2024-02-26T13:01:22;0.80;;;0.80;;
4186;SDS011;2107;52.306;10.484;2024-02-26T13:03:50;0.70;;;0.70;;
4186;SDS011;2107;52.306;10.484;2024-02-26T13:06:18;0.97;;;0.97;;
4186;SDS011;2107;52.306;10.484;2024-02-26T13:08:55;0.80;;;0.80;;
4186;SDS011;2107;52.306;10.484;2024-02-26T13:11:24;0.90;;;0.90;;
4186;SDS011;2107;52.306;10.484;2024-02-26T13:13:51;0.90;;;0.90;;
4186;SDS011;2107;52.306;10.484;2024-02-26T13:16:18;0.90;;;0.90;;
4186;SDS011;2107;52.306;10.484;2024-02-26T13:18:49;1.00;;;1.00;;
4186;SDS011;2107;52.306;10.484;2024-02-26T13:21:19;0.90;;;0.90;;
4186;SDS011;2107;52.306;10.484;2024-02-26T13:23:48;1.13;;;1.13;;
4186;SDS011;2107;52.306;10.484;2024-02-26T13:26:21;1.00;;;1.00;;
4186;SDS011;2107;52.306;10.484;2024-02-26T13:28:59;1.10;;;1.10;;
4186;SDS011;2107;52.306;10.484;2024-02-26T13:31:28;1.20;;;1.20;;
4186;SDS011;2107;52.306;10.484;2024-02-26T13:33:55;1.10;;;1.10;;
4186;SDS011;2107;52.306;10.484;2024-02-26T13:36:23;1.00;;;1.00;;
4186;SDS011;2107;52.306;10.484;2024-02-26T13:38:51;1.00;;;1.00;;
4186;SDS011;2107;52.306;10.484;2024-02-26T13:41:21;0.93;;;0.93;;
4186;SDS011;2107;52.306;10.484;2024-02-26T13:43:48;1.00;;;1.00;;
4186;SDS011;2107;52.306;10.484;2024-02-26T13:46:15;1.00;;;1.00;;
4186;SDS011;2107;52.306;10.484;2024-02-26T13:48:42;0.90;;;0.90;;
4186;SDS011;2107;52.306;10.484;2024-02-26T13:51:09;1.00;;;1.00;;
4186;SDS011;2107;52.306;10.484;2024-02-26T13:53:36;1.00;;;1.00;;
4186;SDS011;2107;52.306;10.484;2024-02-26T13:56:03;0.90;;;0.90;;
4186;SDS011;2107;52.306;10.484;2024-02-26T13:58:33;0.90;;;0.90;;
4186;SDS011;2107;52.306;10.484;2024-02-26T14:01:00;1.00;;;1.00;;
4186;SDS011;2107;52.306;10.484;2024-02-26T14:03:28;1.00;;;1.00;;
4186;SDS011;2107;52.306;10.484;2024-02-26T14:05:55;0.80;;;0.80;;
4186;SDS011;2107;52.306;10.484;2024-02-26T14:08:23;0.90;;;0.90;;
4186;SDS011;2107;52.306;10.484;2024-02-26T14:10:50;0.70;;;0.70;;
4186;SDS011;2107;52.306;10.484;2024-02-26T14:13:17;0.80;;;0.80;;
4186;SDS011;2107;52.306;10.484;2024-02-26T14:15:45;0.70;;;0.70;;
4186;SDS011;2107;52.306;10.484;2024-02-26T14:18:12;0.80;;;0.80;;
4186;SDS011;2107;52.306;10.484;2024-02-26T14:20:39;0.90;;;0.90;;
4186;SDS011;2107;52.306;10.484;2024-02-26T14:23:06;1.10;;;1.10;;
4186;SDS011;2107;52.306;10.484;2024-02-26T14:25:34;0.70;;;0.70;;
4186;SDS011;2107;52.306;10.484;2024-02-26T14:28:01;0.70;;;0.70;;
4186;SDS011;2107;52.306;10.484;2024-02-26T14:30:28;0.80;;;0.80;;
4186;SDS011;2107;52.306;10.484;2024-02-26T14:32:57;0.70;;;0.70;;
4186;SDS011;2107;52.306;10.484;2024-02-26T14:35:24;0.70;;;0.70;;
4186;SDS011;2107;52.306;10.484;2024-02-26T14:37:53;0.80;;;0.80;;
4186;SDS011;2107;52.306;10.484;2024-02-26T14:40:25;0.90;;;0.90;;
4186;SDS011;2107;52.306;10.484;2024-02-26T14:42:57;0.83;;;0.83;;
4186;SDS011;2107;52.306;10.484;2024-02-26T14:45:24;0.80;;;0.80;;
4186;SDS011;2107;52.306;10.484;2024-02-26T14:47:54;0.90;;;0.90;;
4186;SDS011;2107;52.306;10.484;2024-02-26T14:50:22;1.00;;;1.00;;
4186;SDS011;2107;52.306;10.484;2024-02-26T14:52:49;1.10;;;1.10;;
4186;SDS011;2107;52.306;10.484;2024-02-26T14:55:16;1.20;;;1.20;;
4186;SDS011;2107;52.306;10.484;2024-02-26T14:57:43;1.10;;;1.10;;
4186;SDS011;2107;52.306;10.484;2024-02-26T15:00:10;1.30;;;1.30;;
4186;SDS011;2107;52.306;10.484;2024-02-26T15:02:37;1.10;;;1.10;;
4186;SDS011;2107;52.306;10.484;2024-02-26T15:05:06;1.10;;;1.10;;
4186;SDS011;2107;52.306;10.484;2024-02-26T15:07:37;0.90;;;0.90;;
4186;SDS011;2107;52.306;10.484;2024-02-26T15:10:05;1.10;;;1.10;;